Terminal Aerodrome Forecast
Issued by NWS Sioux Falls, SD

Home | Current Version | Previous Version | Graphics & Text | Print | Product List | Glossary On
Versions: 1 2 3 4 5 6 7 8 9 10 11 12 13 14 15 16 17 18 19
000
FTUS43 KFSD 111100
TAFFSD
TAF
KFSD 111136Z 1112/1212 19012G19KT P6SM BKN120
     FM111700 18012KT P6SM SCT030 BKN250
     FM120000 14006KT P6SM BKN200
     FM120900 15005KT P6SM BKN090
      TEMPO 1209/1212 6SM TSRA BKN035CB=

USA.gov is the U.S. government's official web portal to all federal, state and local government web resources and services.